Flight Track Log - Related Links

Times and Time Zones

All times are in EDT time to prevent confusion due to time zone crossing. See the EJA941 flight status page for this flight to view local times or setup timezone preferences in your user account.

Time Position Orientation Groundspeed Altitude Reporting Facility
EDT Latitude Longitude Course Direction KTS MPH feet Rate Location/Type
Thu 06:38:16 PM 39.1500 -76.7167 180° South 278 320 5,900  Level Potomac TRACON
Thu 06:39:16 PM 39.1333 -76.6167 102° East 293 337 7,000 550 Climbing Potomac TRACON
Thu 06:40:16 PM 39.1500 -76.5167 78° East 291 335 7,000  Level Potomac TRACON
Thu 06:41:16 PM 39.1500 -76.4000 90° East 296 341 7,000  Level Potomac TRACON
Thu 06:42:00 PM 39.1611 -76.0949 83° East  Level FlightAware Approximate
Thu 06:42:16 PM 39.1500 -76.3000 90° East 297 342 7,000  Level Potomac TRACON
Thu 06:44:00 PM 39.1606 -76.1001 83° East  Level FlightAware Approximate
Thu 06:51:00 PM 39.2332 -75.2951 84° East  Level FlightAware Approximate
Thu 06:52:00 PM 39.2424 -75.1798 84° East  Level FlightAware Approximate
Thu 06:53:00 PM 39.2500 -75.0644 90° East  Level FlightAware Approximate
Thu 06:54:00 PM 39.2507 -74.9487 57° Northeast  Level FlightAware Approximate
Thu 06:54:51 PM 39.3578 -75.0172 52° Northeast 280 322 5,000  Level Washington Center
Thu 06:55:00 PM 39.3026 -74.8544 49° Northeast  Level FlightAware Approximate
Thu 06:56:00 PM 39.3475 -74.7549 57° Northeast  Level FlightAware Approximate
Thu 06:57:00 PM 39.3963 -74.6574 57° Northeast  Level FlightAware Approximate
Thu 06:58:00 PM 39.4500 -74.5667 52° Northeast  Level FlightAware Approximate
Thu 06:58:27 PM 39.3558 -74.6683 90° East 272 313 3,000  Level Washington Center
Thu 06:59:00 PM 39.4576 -74.5772 52° Northeast  Level Estimated
Thu 07:00:00 PM 39.4576 -74.5772 52° Northeast  Level Estimated
Thu 07:02:28 PM 39.4231 -74.4928 64° Northeast 154 177 1,200  Level Washington Center

Login

Don't have an account? Register now (free) for customized features, flight alerts, and more!